Ft Lauderdale, FL

9:32 AM EDT on May 25, 2017 (GMT -0400)
Fort Lauderdale-Hollywood International | | Change Station

Elev 7 ft 26.07 °N, 80.15 °W | Updated 39 minutes ago

Mostly Cloudy
Mostly Cloudy
83 °F
Feels Like 92 °F
N
14
Wind Variable Wind from SW
Gusts 23 mph

Today
High -- | Low -- °F
--% Chance of Precip.
Yesterday
High -- | Low -- °F
Precip. -- in
Pressure 29.86 in
Visibility 10.0 miles
Clouds Scattered Clouds 2500 ft
Mostly Cloudy 3000 ft
Overcast 25000 ft
Heat Index 92 °F
Dew Point 77 °F
Humidity 82%
Rainfall 0.00 in
Snow Depth Not available.
6:30 AM 8:05 PM
Waning Crescent, 0% visible
METAR KFLL 251253Z COR 22012G20KT 10SM SCT025 BKN030 OVC250 28/25 A2986 RMK AO2 SLP110 T02830250
Pressure 29.86 in
Visibility 10.0 miles
Clouds Scattered Clouds 2500 ft
Mostly Cloudy 3000 ft
Overcast 25000 ft
Heat Index 92 °F
Dew Point 77 °F
Humidity 82%
Rainfall 0.00 in
Snow Depth Not available.
6:30 AM 8:05 PM
Waning Crescent, 0% visible
METAR KFLL 251253Z COR 22012G20KT 10SM SCT025 BKN030 OVC250 28/25 A2986 RMK AO2 SLP110 T02830250

Get Severe Weather Alerts

Thanks for signing up!

Be on the lookout for a verification email in your inbox.

You'll start receiving the daily forecast at 6 AM.

×

10-Day Weather Forecast

Almanac

Astronomy

May. 25, 2017 Rise Set
Actual Time
Civil Twilight
Nautical Twilight
Astronomical Twilight
Moon
Length of Visible Light
Length of Day
Tomorrow will be .
, % of the Moon is Illuminated

Today's Extremes

State Highs State Lows

Community

WunderPhotos

Category 6

Welcome to Category 6. This is the collective home for Weather Underground's featured writeups by Dr. Jeff Masters (right), Bob Henson (left), Chris Burt, and other regular contributors.

Nearby

Air Quality

  Air Quality AQ Index Pollutant
Not available.

Snow Depth

Station Depth Elevation

Earthquake Activity

City Distance Mag. Time & Date
Minimum magnitude displayed is 2.5.

Coastal Water Temperatures

Place Temperature

Stations

Nearby Weather Stations

Station Location Temp. Windchill Dew Point Humidity Wind Precip. Elev Updated Type
                   

Watches & Warnings

There are currently no watches in effect.